Timeline UpdatesTrip UpdatesNews PostsPvt PostsTravel TipsAdmin PostsConv PostsFollowed PostsChat RequestsBlog PostsPNR Posts

Disclaimer
Search
 
 
Wed Apr 16, 2014 21:51:46 ISTHomeTrainsΣChainsAtlasPNRForumGalleryNewsFAQTripsMembersLoginFeedback
No Recent News for this Train
Other Trains in the News **new
Latest...
.
Fri Feb 21, 2014 (02:20PM)
⇐ Return Journey: Train# 13008

13007/Udyan Abha Toofan Express

Feb 21 2014 (2:33PM)
Change Departure Station:
Change Arrival Station:
Post a Train Travel TipPost a Train Travel Tip **new
Post a Comment/Question/Picture/VideoPost a Comment/Question/Picture/Video
Inaugural Run
Wed Jan 01, 1930
Pantry/Catering
✕ NO Pantry Car
✕ NO Catering
RSA - Rake Sharing
Rake/Coach Composition
LOCO-SLR-GEN-GEN-B1-S5-S4-S3-S2-S1-GEN-GEN-SLR-HCPV-HCPV.
Loco
Loco Reversal @ Agra Cant (AGC) hwh - ndls wap4 (...
Read more...
hwh ) ndls - sgnr wdm3a ( tkd )
News    PNR    Forum    Time-Table    Availability    Fare Chart    Map    Arr/Dep History    Trips    Gallery    ΣChains    X/O    Timeline    
Travel Time: 11h 15m    34 halts    Distance: 544 km    Avg Speed: 48 km/hr
Type: Mail/Express
Zone: ER/Eastern
Departs @ 09:35 (Avg 22m late)
Platform# 11
SMTWTFS
Kolkata Howrah Junction/HWH 
Arrives @ 20:50 (Avg 1h 7m late)
Platform# ???
SMTWTFS
Patna Junction/PNBE 

34 halts. 131 intermediate Stations between Kolkata Howrah Junction and Patna Junction

Show ALL intermediate Stations  Show Old Time-Table

#CodeStation NameX/OArrivesAvgDepartsAvgHaltPFDay#KmSpeedElevZoneAddress
1HWH»Kolkata Howrah Junction (23)»  -09:35+221110.04210mERHowrah 711101, West Bengal
2BDCBandel Junction (7)X  10:32+2510:37+255m--139.67014mERdist - HOOGHLY, West Bengal
3BWNBarddhaman Junction (8)X  11:35+3011:40+305m--1106.88234mERDist - Barddhaman, West Bengal
4PANPanagarh (4)  12:15+3612:16+381m--1154.85570mERKaksa, West Bengal
5DGRDurgapur (5)X  12:33+3412:35+342m31170.47971mERDurgapur, West Bengal
6UDLAndal Junction (6)X  12:48+3812:50+382m--1187.46286mERAndal, West Bengal
7RNGRaniGanj (4)X  12:57+4112:58+421m--1194.73492mERRaniganj, West Bengal
8ASNAsansol Junction (7)X  13:30+3113:35+355m41212.840113mERDist - bardhaman, West Bengal
9STNSitarampur Junction (5)  13:48+3713:50+372m--1221.657139mERG T Rd Before Asansol, West Bengal
10CRJChittaranjan (3)X  14:07+3714:08+381m31237.966182mERMihijam, Jharkhand
11JMTJamtara (2)X  14:21+3714:22+401m11252.263201mERJamtara, Jharkhand
12VDSVidyasagar (2)  14:39+4214:40+431m--1270.166250mERJamtara, Jharkhand
13MDPMadhupur Junction (4)  15:02+4415:12+4110m21294.367254mER06432-224478, Jharkhand
14JSMEJasidih Junction (5)  15:38+4415:43+435m--1323.480271mERJasidih, Jharkhand
15STLSimultala (2)X  16:02+4216:03+421m--1348.830247mERSimultala, Bihar
16JAJJhajha (4)  16:40+3516:45+375m31367.562143mECRJhajha, Bihar
17GHRGidhaur (2)X  16:56+4116:57+421m--1378.973106mECRState Highway 18, Bihar
18JMUJamui (3)X  17:09+4517:10+471m--1393.59481mECRState Highway 72, Bihar
19MNPMananpur (2)  17:23+4817:24+511m--1413.91757mECRState Highway 18, Bihar
20BSQPBansipur  17:33+5017:34+521m--1416.42653mECRKiul, Bihar
21KIULKiul Junction (5)X  17:44+5017:48+494m31420.81253mECRDist. Lakhisarai, Bihar
22LKRLuckeesarai Junction (2)X  17:55+4917:56+501m--1422.13852mECRLakhisarai, Bihar
23DMRXDumri Halt (1)  18:13+4818:14+481m11432.95149mECRNational Highway 80, Bihar
24BRYABarhiya  18:19+4718:20+481m--1437.25647mECRBarahiya, Bihar
25HTZHathidah Junction (2)X  18:30+4918:31+501m21446.65650mECRMusahari, Bihar
26MKAMokama Junction (3)X  18:40+5218:44+534m--1455.07248mECRPatna, Bihar
27MORMorX  18:50+5518:51+551m--1462.25546mECRMor, Bihar
28PHKPunarakh  19:00+5419:01+551m--1470.56251mECRPunarakh, Bihar
29BARHBarh (3)X  19:11+5519:12+571m--1480.96949mECRBarh, Bihar
30ATLAthmal Gola (2)XO  19:20+5719:21+571m--1490.02252mECRPatna, Bihar
31BKPBakhtiyarpur Junction (5)X  19:46+4419:48+452m--1499.17951mECRPatna, Bihar
32KOOKhusropur (2)  19:59+4820:00+561m--1513.75652mECRPatna, Bihar
33FUTFatwa (6)X  20:09+5820:10+1:011m--1522.17353mECRPatna, Bihar
34PNCPatna Saheb (3)X  20:20+1:0520:21+1:081m--1534.32659mECRPatna, Bihar
35GZHGulzarbagh (3)X  20:28+1:0720:29+1:121m--1537.42055mECRPatna, Bihar
36PNBE•Patna Junction (10)•X  20:50+1:0721:00+1:1310m--1544.23857mECRPatna 800001, Bihar
37DNRDanapur (5)XO  21:15+1:2121:25+1:2210m--1553.65658mECRKhagaul, Bihar
38SDESadisopur (2)  21:39+1:3021:40+1:311m--1566.75164mECRSadisopur, Bihar
39BTABihta (2)X  21:45+1:3021:46+1:331m--1571.03962mECRBihta, Bihar
40KUAKulharia (2)  22:05+1:2922:06+1:311m--1583.35461mECRChandi Sahar Rd, Bihar
41ARAAra Junction (3)  22:17+1:3122:22+1:335m--1593.29263mECRarrah( 06182-233411), Bihar
42BEABihiya  22:36+1:3722:37+1:391m--1614.65167mECRBehea, Bihar
43BYNBanahi  22:44+1:3822:45+1:381m--1620.55967mECRBanahi, Bihar
44RPRRaghunathpur  22:54+1:3722:55+1:421m--1629.47469mECRRaghunathpur, Bihar
45DUREDumraon (3)  23:08+1:4323:09+1:461m--1645.36170mECRDumraon, Bihar
46BXRBuxar (3)X  23:25+1:4723:30+1:495m--1661.78067mECRBuxar, Bihar
47DLNDildarnagar Junction (2)  23:57+1:5123:59+1:522m--1697.95872mECRDildarnagar, Uttar Pradesh
48ZNAZamaniaXO  00:13+1:4800:14+1:501m--2711.32077mECRGhazipur, Uttar Pradesh
49MGSMughal Sarai Junction (8)XO  02:25+4802:40+5015m--2755.65583mECRMughalsarai 232101, Uttar Pradesh
50CARChunar Junction (5)X  03:15+1:1103:16+1:141m22787.56185mNCRChunar Junction, Uttar Pradesh
51MZPMirzapur (3)O  03:47+1:2803:48+1:311m--2818.84988mNCRMirzapur, Uttar Pradesh
52BDLVindhyachal (3)  03:57+1:3803:58+1:411m--2826.17488mNCRMirzapur, Uttar Pradesh
53ALDAllahabad Junction (10)X  05:05+2:5205:15+2:5410m22908.377100mNCRAllahabad 211003, Uttar Pradesh
54BREBharwariX  05:44+3:1405:45+3:171m--2945.475108mNCRBharwari, Uttar Pradesh
55SROSirathu (2)X  06:01+3:2106:02+3:241m12965.571109mNCRSirathu, Uttar Pradesh
56KGAKhaga (3)  06:23+3:3006:24+3:341m--2990.352114mNCRFatehpur, Uttar Pradesh
57FTPFatehpur (3)  07:04+3:2707:05+3:351m--21025.058120mNCRFatehpur, Uttar Pradesh
58CNBKanpur Central (10)  08:25+3:4908:40+3:5215m221102.636128mNCRKanpur, Uttar Pradesh
59PNKPanki (3)  08:59+3:5709:00+3:581m--21114.286129mNCRKANPUR-208 020, Uttar Pradesh
60RURARura (4)  09:23+3:5909:24+4:021m--21147.071137mNCRJhinjhak, Uttar Pradesh
61JJKJhinjhak (3)  09:40+4:0309:41+4:051m321166.074140mNCRAuraiya, Uttar Pradesh
62PHDPhaphund (4)X  09:57+4:1309:58+4:161m--21185.867146mNCRdist. Auraiya, Uttar Pradesh
63ULDAchalda (3)X  10:13+4:1610:14+4:181m--21202.673147mNCRDist. Auraiya(05688-1072), Uttar Pradesh
64BNTBharthana (3)X  10:30+4:1710:31+4:211m--21222.152147mNCRBharthana, Uttar Pradesh
65ETWEtawah (5)  10:54+4:1810:55+4:231m221242.062154mNCRDistt. Etawah, Uttar Pradesh
66SKBShikohabad Junction (4)X  11:49+4:3711:50+4:351m321297.438166mNCRDistrict Firozabad, Uttar Pradesh
67FZDFirozabad (4)  12:21+4:3412:22+4:391m321317.323164mNCRFirozabad, Uttar Pradesh
68TDLTundla Junction (4)  13:05+4:2913:15+4:2710m221333.821167mNCRDistt.Firozabad, Uttar Pradesh
69AFAgra Fort (3)  14:20+4:2214:25+4:325m221356.714170mNCRRakabganj, Uttar Pradesh
70IDHIdgah Agra Junction (3)  14:34+4:3414:35+4:431m--21358.95168mNCRAgra, Uttar Pradesh
71AGCAgra Cantt. (6)XO  15:00+4:3115:20+5:0720m321361.113174mNCRAgra, Uttar Pradesh
72RKMRaja Ki Mandi (4)  15:38+4:4515:39+4:461m121365.165170mNCRAgra, Uttar Pradesh
73MTJMathura Junction (10)  16:25+4:4816:33+5:048m221414.872179mNCRMathura, Uttar Pradesh
74CHJChata (4)X  16:59+4:4717:00+4:481m--21445.951185mNCRChhata, Uttar Pradesh
75KSVKosi Kalan (3)X  17:12+4:4717:13+4:481m121456.255189mNCRKosi Kalan, Uttar Pradesh
76PWLPalwal (8)X  17:59+4:3718:00+4:411m--21498.756200mNRPalwal, Haryana
77ASTAsaoti (5)  18:12+4:4218:13+4:421m321510.059203mNRAsaoti, Haryana
78BVHBallabgarh (5)  18:23+4:4518:24+4:451m--21519.844203mNRFaridabad, Haryana
79FDBFaridabad (4)  18:35+4:4418:36+4:451m221527.948206mNRFaridabad, Haryana
80TKDTuglakabad (4)X  18:50+4:4418:51+4:391m--21539.033213mNRNear Tughlakabad Metro Station, Delhi NCT
81OKAOkhla (4)  19:02+4:4419:03+4:381m--21545.018221mNRIshwar Nagar Mathura Road, Delhi NCT
82NZMDelhi Hazrat Nizamuddin (7)X  19:15+4:4119:17+4:412m321548.748209mNRNizamuddin East/Sarai KaleKhan Bus Terminal, Delhi NCT
83TKJTilak Bridge (4)X  19:23+4:3919:24+4:381m--21553.59214mNRNew Delhi, Delhi NCT
84NDLSNew Delhi (16)X  19:40+4:3320:10+4:3430m221555.914215mNRAjmeri Gate/Paharganj, Delhi NCT
85DKZDelhi KishanGanj (2)  20:27+4:3820:28+4:391m--21559.832220mNRSarai Rohilla, Delhi NCT
86SSBShakur BastiX  20:41+4:4020:42+4:411m--21566.850216mNRPitampura, Delhi NCT
87BGZBahadurgarh  21:06+4:4221:07+4:421m--21586.772220mNRBahadurgarh, Haryana
88SPZSamplaX  21:22+4:4421:23+4:451m--21604.650222mNRSampla, Haryana
89ROKRohtak Junction (3)  21:50+4:4021:55+4:385m--21627.067220mNRRohtak, Haryana
90JNAJulana  22:23+4:3722:24+4:371m--21658.450226mNRJulana, Haryana
91JINDJind Junction (3)  22:55+4:3123:00+4:305m--21684.170222mNR126102., Haryana
92UCAUchana  23:16+4:3223:17+4:331m--21702.865225mNRDistrict Jind, Haryana
93NRWNarwana Junction (4)  23:31+4:3423:32+4:351m--21718.073235mNRWay to Narwana, Haryana
94TUNTohana (2)  23:53+4:3523:54+4:361m--21743.435232mNRTohana, Haryana
95JHLJakhal Junction  00:15+4:2800:25+4:2310m--31755.743225mNRJakhal, Haryana
96BLZBudhladaX  01:06+4:2101:07+4:151m--31785.348223mNRBudhlada, Punjab
97MSZMansa  01:27+4:1801:28+4:201m--31801.449222mNRMansa, Punjab
98MAURMaur  01:51+4:1801:52+4:191m--31820.126220mNRMaur Mandi, Punjab
99BTIBathinda Junction (6)XO  03:15+3:5304:05+3:4250m231855.673208mNRBathinda, Punjab
100GDBGiddarbaha  04:28+3:4904:29+3:561m--31883.457200mNRGiddarbaha, Punjab
101MOTMalout (1)  04:46+3:5604:47+3:591m131899.644194mNRMalaut, Punjab
102ABSAbohar  05:27+3:5005:28+3:531m--31929.135186mNRAbohar, Punjab
103SGNRShri Ganganagar  07:00+3:40-331982.2-178mNWRSri Ganganagar, Rajasthan
Scroll to Top
Scroll to Bottom